createdAt,value
2022-10-05T00:01:40.751Z,89296.28
2022-10-05T00:04:25.366Z,89299.75
2022-10-05T00:07:10.029Z,89295.00
2022-10-05T00:09:54.827Z,89293.81
2022-10-05T00:12:39.566Z,89298.13
2022-10-05T00:15:24.520Z,89308.28
2022-10-05T00:18:09.239Z,89304.38
2022-10-05T00:20:54.103Z,89297.16
2022-10-05T00:23:39.075Z,89296.03
2022-10-05T00:26:23.815Z,89301.34
2022-10-05T00:29:08.602Z,89301.66
2022-10-05T00:31:53.352Z,89299.75
2022-10-05T00:34:38.577Z,89303.06
2022-10-05T00:37:23.183Z,89299.03
2022-10-05T00:40:08.022Z,89297.34
2022-10-05T00:42:52.777Z,89297.13
2022-10-05T00:45:37.562Z,89301.34
2022-10-05T00:48:22.335Z,89297.34
2022-10-05T00:51:07.111Z,89299.53
2022-10-05T00:53:51.829Z,89301.84
2022-10-05T00:56:36.555Z,89299.94
2022-10-05T00:59:21.330Z,89293.28
2022-10-05T01:02:06.103Z,89291.19
2022-10-05T01:04:50.790Z,89292.97
2022-10-05T01:07:35.461Z,89281.81
2022-10-05T01:10:20.332Z,89281.09
2022-10-05T01:13:04.962Z,89283.03
2022-10-05T01:15:49.667Z,89282.63
2022-10-05T01:18:34.504Z,89290.50
2022-10-05T01:21:19.275Z,89286.13
2022-10-05T01:24:04.188Z,89283.84
2022-10-05T01:26:49.174Z,89286.97
2022-10-05T01:29:34.320Z,89285.88
2022-10-05T01:32:18.936Z,89280.44
2022-10-05T01:35:03.773Z,89276.75
2022-10-05T01:37:48.647Z,89284.69
2022-10-05T01:40:33.420Z,89279.19
2022-10-05T01:43:18.192Z,89276.88
2022-10-05T01:46:02.941Z,89270.94
2022-10-05T01:48:47.815Z,89263.09
2022-10-05T01:51:32.625Z,89265.13
2022-10-05T01:54:17.500Z,89263.72
2022-10-05T01:57:02.205Z,89255.25
2022-10-05T01:59:47.072Z,89256.03
2022-10-05T02:02:31.848Z,89256.75
2022-10-05T02:05:17.025Z,89258.56
2022-10-05T02:08:01.747Z,89259.25
2022-10-05T02:10:46.539Z,89260.88
2022-10-05T02:13:31.191Z,89264.88
2022-10-05T02:16:16.004Z,89254.53
2022-10-05T02:19:01.325Z,89246.81
2022-10-05T02:21:45.927Z,89249.72
2022-10-05T02:24:30.687Z,89247.09
2022-10-05T02:27:15.395Z,89254.66
2022-10-05T02:30:00.131Z,89242.25
2022-10-05T02:32:44.848Z,89241.25
2022-10-05T02:35:29.670Z,89244.88
2022-10-05T02:38:14.321Z,89247.31
2022-10-05T02:40:59.109Z,89244.38
2022-10-05T02:43:44.123Z,89241.78
2022-10-05T02:46:28.859Z,89244.06
2022-10-05T02:49:13.683Z,89241.03
2022-10-05T02:51:58.283Z,89249.09
2022-10-05T02:54:43.246Z,89244.38
2022-10-05T02:57:27.912Z,89246.59
2022-10-05T03:00:12.656Z,89243.97
2022-10-05T03:02:57.293Z,89241.88
2022-10-05T03:05:42.123Z,89244.28
2022-10-05T03:08:26.823Z,89246.50
2022-10-05T03:11:11.683Z,89245.59
2022-10-05T03:13:56.489Z,89237.38
2022-10-05T03:16:41.097Z,89233.53
2022-10-05T03:19:26.025Z,89237.38
2022-10-05T03:22:10.884Z,89229.41
2022-10-05T03:24:55.639Z,89238.97
2022-10-05T03:27:40.344Z,89236.25
2022-10-05T03:30:25.099Z,89239.88
2022-10-05T03:33:09.838Z,89237.56
2022-10-05T03:35:54.727Z,89237.69
2022-10-05T03:38:39.461Z,89240.81
2022-10-05T03:41:24.257Z,89236.78
2022-10-05T03:44:08.996Z,89233.84
2022-10-05T03:46:53.665Z,89232.66
2022-10-05T03:49:38.467Z,89242.41
2022-10-05T03:52:23.251Z,89238.19
2022-10-05T03:55:08.012Z,89241.13
2022-10-05T03:57:52.697Z,89241.59
2022-10-05T04:00:37.459Z,89247.34
2022-10-05T04:03:22.271Z,89239.63
2022-10-05T04:06:06.953Z,89239.31
2022-10-05T04:08:51.586Z,89233.06
2022-10-05T04:11:36.412Z,89235.16
2022-10-05T04:14:21.165Z,89232.75
2022-10-05T04:17:05.886Z,89231.16
2022-10-05T04:19:50.793Z,89243.22
2022-10-05T04:22:35.405Z,89238.38
2022-10-05T04:25:20.369Z,89238.19
2022-10-05T04:28:05.187Z,89249.16
2022-10-05T04:30:50.042Z,89243.72
2022-10-05T04:33:34.634Z,89238.09
2022-10-05T04:36:19.400Z,89241.44
2022-10-05T04:39:04.167Z,89243.31
2022-10-05T04:41:49.001Z,89245.63
2022-10-05T04:44:33.835Z,89249.97
2022-10-05T04:47:18.665Z,89246.25
2022-10-05T04:50:03.485Z,89256.50
2022-10-05T04:52:48.144Z,89253.91
2022-10-05T04:55:32.828Z,89253.78
2022-10-05T04:58:17.489Z,89247.84
2022-10-05T05:01:02.429Z,89245.94
2022-10-05T05:03:47.189Z,89249.69
2022-10-05T05:06:32.362Z,89245.25
2022-10-05T05:09:17.171Z,89241.28
2022-10-05T05:12:01.969Z,89244.81
2022-10-05T05:14:46.777Z,89251.97
2022-10-05T05:17:31.460Z,89245.25
2022-10-05T05:20:16.249Z,89241.03
2022-10-05T05:23:01.033Z,89242.00
2022-10-05T05:25:45.826Z,89249.28
2022-10-05T05:28:30.603Z,89248.25
2022-10-05T05:31:15.348Z,89249.75
2022-10-05T05:33:59.977Z,89252.06
2022-10-05T05:36:45.073Z,89255.59
2022-10-05T05:39:30.345Z,89256.09
2022-10-05T05:42:14.995Z,89259.72
2022-10-05T05:44:59.895Z,89264.75
2022-10-05T05:47:44.684Z,89273.09
2022-10-05T05:50:29.689Z,89261.75
2022-10-05T05:53:14.380Z,89274.81
2022-10-05T05:55:59.367Z,89280.75
2022-10-05T05:58:44.025Z,89276.00
2022-10-05T06:01:33.531Z,89280.44
2022-10-05T06:04:18.795Z,89276.13
2022-10-05T06:07:03.628Z,89281.97
2022-10-05T06:09:48.312Z,89277.91
2022-10-05T06:12:33.098Z,89280.66
2022-10-05T06:15:17.734Z,89280.44
2022-10-05T06:18:02.632Z,89285.56
2022-10-05T06:20:47.243Z,89280.63
2022-10-05T06:23:32.122Z,89282.94
2022-10-05T06:26:16.859Z,89279.13
2022-10-05T06:29:01.571Z,89286.56
2022-10-05T06:31:46.288Z,89288.66
2022-10-05T06:34:31.171Z,89283.63
2022-10-05T06:37:15.965Z,89281.41
2022-10-05T06:40:01.377Z,89290.38
2022-10-05T06:42:46.616Z,89288.81
2022-10-05T06:45:31.415Z,89289.44
2022-10-05T06:48:16.048Z,89290.34
2022-10-05T06:51:00.795Z,89287.44
2022-10-05T06:53:45.539Z,89293.47
2022-10-05T06:56:30.333Z,89294.56
2022-10-05T06:59:14.894Z,89300.16
2022-10-05T07:01:59.602Z,89287.13
2022-10-05T07:04:44.370Z,89276.94
2022-10-05T07:07:29.115Z,89281.78
2022-10-05T07:10:13.737Z,89282.09
2022-10-05T07:12:58.427Z,89294.09
2022-10-05T07:15:43.290Z,89293.41
2022-10-05T07:18:28.012Z,89294.97
2022-10-05T07:21:12.864Z,89298.34
2022-10-05T07:23:57.572Z,89292.41
2022-10-05T07:26:42.364Z,89295.53
2022-10-05T07:29:27.203Z,89300.34
2022-10-05T07:32:11.918Z,89297.03
2022-10-05T07:34:56.632Z,89293.16
2022-10-05T07:37:41.369Z,89301.97
2022-10-05T07:40:26.189Z,89306.84
2022-10-05T07:43:10.862Z,89301.22
2022-10-05T07:45:55.679Z,89299.97
2022-10-05T07:48:40.405Z,89307.66
2022-10-05T07:51:25.373Z,89304.44
2022-10-05T07:54:10.202Z,89300.38
2022-10-05T07:56:54.850Z,89303.13
2022-10-05T07:59:39.704Z,89300.28
2022-10-05T08:02:24.442Z,89302.00
2022-10-05T08:05:09.588Z,89300.03
2022-10-05T08:07:54.593Z,89297.84
2022-10-05T08:10:39.277Z,89292.38
2022-10-05T08:13:24.137Z,89293.00
2022-10-05T08:16:08.917Z,89292.41
2022-10-05T08:18:53.877Z,89292.31
2022-10-05T08:21:38.635Z,89288.81
2022-10-05T08:24:23.440Z,89293.28
2022-10-05T08:27:08.199Z,89288.06
2022-10-05T08:29:52.958Z,89287.28
2022-10-05T08:32:37.694Z,89288.81
2022-10-05T08:35:22.627Z,89289.44
2022-10-05T08:38:07.252Z,89282.63
2022-10-05T08:40:51.960Z,89283.78
2022-10-05T08:43:36.664Z,89281.59
2022-10-05T08:46:21.503Z,89283.94
2022-10-05T08:49:06.179Z,89278.06
2022-10-05T08:51:50.882Z,89274.47
2022-10-05T08:54:35.664Z,89277.50
2022-10-05T08:57:20.340Z,89273.47
2022-10-05T09:00:05.167Z,89271.53
2022-10-05T09:02:49.977Z,89272.78
2022-10-05T09:05:34.764Z,89273.28
2022-10-05T09:08:19.456Z,89264.66
2022-10-05T09:11:04.184Z,89272.69
2022-10-05T09:13:48.940Z,89270.81
2022-10-05T09:16:33.685Z,89263.75
2022-10-05T09:19:18.375Z,89260.50
2022-10-05T09:22:03.089Z,89261.66
2022-10-05T09:24:48.699Z,89264.22
2022-10-05T09:27:33.503Z,89262.81
2022-10-05T09:30:18.329Z,89261.09
2022-10-05T09:33:02.952Z,89258.84
2022-10-05T09:35:47.707Z,89259.38
2022-10-05T09:38:32.492Z,89253.25
2022-10-05T09:41:17.450Z,89253.19
2022-10-05T09:44:02.419Z,89260.84
2022-10-05T09:46:47.295Z,89248.53
2022-10-05T09:49:32.307Z,89251.25
2022-10-05T09:52:19.067Z,89252.59
2022-10-05T09:55:04.281Z,89241.72
2022-10-05T09:57:50.895Z,89244.19
2022-10-05T10:00:38.360Z,89246.63
2022-10-05T10:03:23.479Z,89249.00
2022-10-05T10:06:08.283Z,89244.00
2022-10-05T10:08:53.054Z,89245.53
2022-10-05T10:11:37.690Z,89241.91
2022-10-05T10:14:22.435Z,89239.16
2022-10-05T10:17:07.279Z,89232.22
2022-10-05T10:19:52.190Z,89232.63
2022-10-05T10:22:42.211Z,89241.81
2022-10-05T10:25:27.677Z,89235.28
2022-10-05T10:28:12.484Z,89226.97
2022-10-05T10:30:57.339Z,89231.84
2022-10-05T10:33:42.052Z,89231.09
2022-10-05T10:36:26.843Z,89224.59
2022-10-05T10:39:11.480Z,89226.69
2022-10-05T10:41:56.266Z,89215.81
2022-10-05T10:44:40.969Z,89214.16
2022-10-05T10:47:26.975Z,89212.88
2022-10-05T10:50:11.928Z,89216.94
2022-10-05T10:52:56.733Z,89215.81
2022-10-05T10:55:41.463Z,89216.09
2022-10-05T10:58:26.362Z,89216.25
2022-10-05T11:01:11.044Z,89216.09
2022-10-05T11:03:55.726Z,89208.56
2022-10-05T11:06:40.354Z,89208.16
2022-10-05T11:09:25.100Z,89199.78
2022-10-05T11:12:09.974Z,89200.59
2022-10-05T11:14:54.623Z,89201.28
2022-10-05T11:17:39.459Z,89199.22
2022-10-05T11:20:24.246Z,89204.41
2022-10-05T11:23:09.057Z,89195.31
2022-10-05T11:25:53.930Z,89195.88
2022-10-05T11:28:38.781Z,89197.00
2022-10-05T11:31:24.034Z,89184.88
2022-10-05T11:34:08.592Z,89180.25
2022-10-05T11:36:53.522Z,89185.72
2022-10-05T11:39:38.300Z,89180.94
2022-10-05T11:42:23.081Z,89180.66
2022-10-05T11:45:07.743Z,89177.84
2022-10-05T11:47:52.552Z,89178.66
2022-10-05T11:50:37.429Z,89168.56
2022-10-05T11:53:22.275Z,89171.19
2022-10-05T11:56:07.121Z,89162.66
2022-10-05T11:58:51.876Z,89162.63
2022-10-05T12:01:36.643Z,89167.63
2022-10-05T12:04:21.322Z,89163.09
2022-10-05T12:07:06.221Z,89157.53
2022-10-05T12:09:51.243Z,89154.03
2022-10-05T12:12:36.083Z,89163.94
2022-10-05T12:15:20.898Z,89156.13
2022-10-05T12:18:05.623Z,89152.59
2022-10-05T12:20:50.469Z,89146.84
2022-10-05T12:23:35.229Z,89150.63
2022-10-05T12:26:20.086Z,89140.47
2022-10-05T12:29:04.879Z,89147.72
2022-10-05T12:31:49.577Z,89142.94
2022-10-05T12:34:34.185Z,89145.41
2022-10-05T12:37:19.027Z,89139.97
2022-10-05T12:40:03.682Z,89143.44
2022-10-05T12:42:48.468Z,89137.59
2022-10-05T12:45:33.267Z,89133.53
2022-10-05T12:48:18.114Z,89136.34
2022-10-05T12:51:02.890Z,89130.94
2022-10-05T12:53:47.488Z,89133.34
2022-10-05T12:56:32.222Z,89130.53
2022-10-05T12:59:16.889Z,89132.78
2022-10-05T13:02:01.837Z,89123.84
2022-10-05T13:04:46.492Z,89130.28
2022-10-05T13:07:31.460Z,89127.38
2022-10-05T13:10:16.194Z,89131.88
2022-10-05T13:13:00.957Z,89133.59
2022-10-05T13:15:45.760Z,89133.69
2022-10-05T13:18:30.437Z,89130.63
2022-10-05T13:21:15.267Z,89138.53
2022-10-05T13:24:00.040Z,89134.63
2022-10-05T13:26:44.763Z,89126.16
2022-10-05T13:29:29.537Z,89131.75
2022-10-05T13:32:14.389Z,89128.22
2022-10-05T13:34:59.140Z,89132.56
2022-10-05T13:37:43.977Z,89128.66
2022-10-05T13:40:28.802Z,89123.34
2022-10-05T13:43:13.413Z,89123.19
2022-10-05T13:45:58.189Z,89123.56
2022-10-05T13:48:42.919Z,89121.06
2022-10-05T13:51:27.746Z,89121.09
2022-10-05T13:54:12.530Z,89115.69
2022-10-05T13:56:57.323Z,89119.81
2022-10-05T13:59:41.973Z,89116.88
2022-10-05T14:02:26.934Z,89120.69
2022-10-05T14:05:11.561Z,89127.03
2022-10-05T14:07:56.331Z,89121.25
2022-10-05T14:10:41.003Z,89115.25
2022-10-05T14:13:25.778Z,89122.38
2022-10-05T14:16:10.544Z,89123.31
2022-10-05T14:18:55.296Z,89113.13
2022-10-05T14:21:40.131Z,89116.72
2022-10-05T14:24:42.802Z,89110.31
2022-10-05T14:27:28.896Z,89118.00
2022-10-05T14:30:13.681Z,89108.09
2022-10-05T14:32:58.523Z,89110.72
2022-10-05T14:35:43.410Z,89109.06
2022-10-05T14:38:28.184Z,89111.13
2022-10-05T14:41:13.410Z,89111.00
2022-10-05T14:43:58.330Z,89107.66
2022-10-05T14:46:43.271Z,89108.09
2022-10-05T14:49:28.062Z,89116.31
2022-10-05T14:52:13.306Z,89112.59
2022-10-05T14:54:58.109Z,89113.00
2022-10-05T14:57:42.961Z,89117.19
2022-10-05T15:00:27.897Z,89111.50
2022-10-05T15:03:12.675Z,89123.66
2022-10-05T15:05:57.522Z,89123.25
2022-10-05T15:08:42.129Z,89123.13
2022-10-05T15:11:27.005Z,89118.13
2022-10-05T15:14:11.757Z,89122.88
2022-10-05T15:16:56.771Z,89121.59
2022-10-05T15:19:41.853Z,89116.00
2022-10-05T15:22:26.710Z,89124.63
2022-10-05T15:25:11.451Z,89129.06
2022-10-05T15:27:56.153Z,89125.19
2022-10-05T15:30:41.087Z,89132.44
2022-10-05T15:33:25.686Z,89130.59
2022-10-05T15:36:10.442Z,89130.75
2022-10-05T15:39:00.105Z,89130.75
2022-10-05T15:41:45.705Z,89140.47
2022-10-05T15:44:30.988Z,89148.13
2022-10-05T15:47:15.663Z,89147.81
2022-10-05T15:50:00.566Z,89155.28
2022-10-05T15:52:45.244Z,89159.56
2022-10-05T15:55:29.989Z,89163.47
2022-10-05T15:58:14.712Z,89165.91
2022-10-05T16:00:59.588Z,89169.75
2022-10-05T16:03:44.465Z,89175.97
2022-10-05T16:06:29.481Z,89179.03
2022-10-05T16:09:14.247Z,89179.97
2022-10-05T16:11:59.036Z,89178.22
2022-10-05T16:14:43.804Z,89184.53
2022-10-05T16:17:28.565Z,89181.41
2022-10-05T16:20:13.416Z,89185.06
2022-10-05T16:22:58.082Z,89184.38
2022-10-05T16:25:42.836Z,89191.69
2022-10-05T16:28:27.743Z,89185.31
2022-10-05T16:31:12.848Z,89197.81
2022-10-05T16:33:57.644Z,89196.97
2022-10-05T16:36:42.407Z,89205.59
2022-10-05T16:39:27.223Z,89206.06
2022-10-05T16:42:11.883Z,89212.56
2022-10-05T16:44:56.659Z,89208.91
2022-10-05T16:47:41.366Z,89223.81
2022-10-05T16:50:26.160Z,89218.31
2022-10-05T16:53:10.835Z,89225.47
2022-10-05T16:55:55.701Z,89219.84
2022-10-05T16:58:40.487Z,89229.50
2022-10-05T17:01:25.189Z,89229.28
2022-10-05T17:04:09.908Z,89242.66
2022-10-05T17:06:54.769Z,89243.72
2022-10-05T17:09:39.648Z,89241.13
2022-10-05T17:12:24.365Z,89241.53
2022-10-05T17:15:09.182Z,89252.41
2022-10-05T17:17:53.877Z,89250.66
2022-10-05T17:20:42.490Z,89251.34
2022-10-05T17:23:27.896Z,89257.38
2022-10-05T17:26:12.560Z,89261.81
2022-10-05T17:28:57.262Z,89264.13
2022-10-05T17:31:41.954Z,89270.59
2022-10-05T17:34:26.871Z,89280.03
2022-10-05T17:37:11.561Z,89281.84
2022-10-05T17:39:56.351Z,89283.47
2022-10-05T17:42:41.082Z,89285.28
2022-10-05T17:45:25.926Z,89290.56
2022-10-05T17:48:11.135Z,89301.44
2022-10-05T17:50:55.877Z,89306.69
2022-10-05T17:53:40.710Z,89306.19
2022-10-05T17:56:25.487Z,89311.81
2022-10-05T17:59:10.239Z,89304.59
2022-10-05T18:01:54.977Z,89314.28
2022-10-05T18:04:39.542Z,89315.16
2022-10-05T18:07:24.255Z,89323.03
2022-10-05T18:10:09.002Z,89326.75
2022-10-05T18:12:53.680Z,89331.88
2022-10-05T18:15:38.602Z,89333.66
2022-10-05T18:18:23.619Z,89341.56
2022-10-05T18:21:08.567Z,89340.13
2022-10-05T18:23:53.431Z,89349.09
2022-10-05T18:26:38.010Z,89356.81
2022-10-05T18:29:22.775Z,89358.22
2022-10-05T18:32:07.471Z,89360.00
2022-10-05T18:34:52.287Z,89373.88
2022-10-05T18:37:37.461Z,89372.47
2022-10-05T18:40:22.198Z,89374.75
2022-10-05T18:43:07.232Z,89377.75
2022-10-05T18:45:51.913Z,89380.38
2022-10-05T18:48:36.835Z,89383.91
2022-10-05T18:51:33.922Z,89384.78
2022-10-05T18:54:19.162Z,89394.25
2022-10-05T18:57:04.137Z,89397.06
2022-10-05T18:59:49.144Z,89397.06
2022-10-05T19:02:33.896Z,89400.06
2022-10-05T19:05:43.069Z,89409.38
2022-10-05T19:08:23.974Z,89405.50
2022-10-05T19:11:08.958Z,89421.28
2022-10-05T19:13:53.737Z,89417.25
2022-10-05T19:16:38.429Z,89419.69
2022-10-05T19:19:29.447Z,89421.09
2022-10-05T19:22:17.201Z,89428.13
2022-10-05T19:25:01.962Z,89429.38
2022-10-05T19:27:46.631Z,89431.81
2022-10-05T19:30:31.485Z,89438.47
2022-10-05T19:33:16.211Z,89440.94
2022-10-05T19:36:01.182Z,89439.88
2022-10-05T19:38:45.840Z,89447.59
2022-10-05T19:41:30.652Z,89450.03
2022-10-05T19:44:15.287Z,89446.00
2022-10-05T19:47:00.011Z,89445.81
2022-10-05T19:49:45.203Z,89448.44
2022-10-05T19:52:30.235Z,89455.44
2022-10-05T19:55:14.967Z,89458.06
2022-10-05T19:57:59.688Z,89462.63
2022-10-05T20:00:44.595Z,89469.81
2022-10-05T20:03:29.285Z,89469.81
2022-10-05T20:06:14.241Z,89468.94
2022-10-05T20:08:58.962Z,89477.72
2022-10-05T20:11:43.693Z,89480.13
2022-10-05T20:14:28.442Z,89490.31
2022-10-05T20:17:13.121Z,89486.63
2022-10-05T20:19:57.855Z,89485.59
2022-10-05T20:22:42.710Z,89497.81
2022-10-05T20:25:27.522Z,89497.81
2022-10-05T20:28:12.274Z,89495.56
2022-10-05T20:30:57.051Z,89500.63
2022-10-05T20:33:41.662Z,89501.13
2022-10-05T20:36:26.436Z,89510.91
2022-10-05T20:39:11.193Z,89504.94
2022-10-05T20:41:56.158Z,89511.03
2022-10-05T20:44:41.024Z,89522.06
2022-10-05T20:47:25.900Z,89525.72
2022-10-05T20:50:10.606Z,89517.66
2022-10-05T20:52:55.894Z,89521.84
2022-10-05T20:55:40.676Z,89528.47
2022-10-05T20:58:25.920Z,89527.91
2022-10-05T21:01:10.862Z,89543.66
2022-10-05T21:03:55.489Z,89536.13
2022-10-05T21:06:40.357Z,89544.53
2022-10-05T21:09:25.022Z,89544.13
2022-10-05T21:12:09.878Z,89535.19
2022-10-05T21:14:54.483Z,89542.38
2022-10-05T21:17:39.284Z,89540.75
2022-10-05T21:20:23.996Z,89538.78
2022-10-05T21:23:08.713Z,89535.09
2022-10-05T21:25:53.552Z,89535.41
2022-10-05T21:28:38.431Z,89541.69
2022-10-05T21:31:23.802Z,89545.03
2022-10-05T21:34:08.450Z,89544.13
2022-10-05T21:36:53.161Z,89544.66
2022-10-05T21:39:37.923Z,89557.00
2022-10-05T21:42:23.582Z,89549.94
2022-10-05T21:45:08.530Z,89547.44
2022-10-05T21:47:53.280Z,89551.63
2022-10-05T21:50:38.180Z,89550.50
2022-10-05T21:53:22.861Z,89558.91
2022-10-05T21:56:07.718Z,89554.84
2022-10-05T21:58:52.452Z,89546.81
2022-10-05T22:01:37.458Z,89546.09
2022-10-05T22:04:22.100Z,89549.94
2022-10-05T22:07:06.894Z,89555.75
2022-10-05T22:09:51.567Z,89561.53
2022-10-05T22:12:36.353Z,89560.09
2022-10-05T22:15:21.150Z,89560.94
2022-10-05T22:18:05.821Z,89563.69
2022-10-05T22:20:50.621Z,89562.09
2022-10-05T22:23:35.411Z,89559.97
2022-10-05T22:26:20.170Z,89560.31
2022-10-05T22:29:04.905Z,89559.59
2022-10-05T22:31:49.685Z,89566.94
2022-10-05T22:34:34.498Z,89558.16
2022-10-05T22:37:19.210Z,89565.34
2022-10-05T22:40:03.980Z,89569.19
2022-10-05T22:42:48.713Z,89563.75
2022-10-05T22:45:33.597Z,89565.66
2022-10-05T22:48:18.860Z,89566.69
2022-10-05T22:51:03.647Z,89565.28
2022-10-05T22:53:48.387Z,89570.84
2022-10-05T22:56:33.117Z,89567.63
2022-10-05T22:59:17.841Z,89562.50
2022-10-05T23:02:02.658Z,89561.09
2022-10-05T23:04:47.821Z,89562.63
2022-10-05T23:07:32.678Z,89555.78
2022-10-05T23:10:17.352Z,89562.72
2022-10-05T23:13:02.010Z,89560.81
2022-10-05T23:15:46.772Z,89557.69
2022-10-05T23:18:31.899Z,89564.84
2022-10-05T23:21:16.940Z,89561.31
2022-10-05T23:24:01.527Z,89570.59
2022-10-05T23:26:46.440Z,89576.22
2022-10-05T23:29:31.282Z,89577.44
2022-10-05T23:32:16.000Z,89575.34
2022-10-05T23:35:00.750Z,89571.28
2022-10-05T23:37:45.442Z,89580.91
2022-10-05T23:40:30.141Z,89573.31
2022-10-05T23:43:14.939Z,89570.81
2022-10-05T23:45:59.758Z,89565.91
2022-10-05T23:48:44.533Z,89566.22
2022-10-05T23:51:29.429Z,89564.38
2022-10-05T23:54:14.188Z,89566.22
2022-10-05T23:56:59.159Z,89554.63
2022-10-05T23:59:43.734Z,89559.84
